Time;durP1;ratioP1;P1;durP2;ratioP2;P2;SDS_P1;SDS_P2;PMS_P1;PMS_P2;Temp;Humidity;BMP_temperature;BMP_pressure;BME280_temperature;BME280_humidity;BME280_pressure;Samples;Min_cycle;Max_cycle;Signal;HPM_P1;HPM_P2
2021/01/18 00:01:33;;;;;;;103.30;37.47;;;-12.50;64.70;;;;;;4957452;28;20028;-77
2021/01/18 00:03:58;;;;;;;98.85;36.60;;;-12.60;64.80;;;;;;4957715;28;20023;-77
2021/01/18 00:06:24;;;;;;;105.23;37.00;;;-12.60;64.80;;;;;;4974640;28;20026;-76
2021/01/18 00:08:50;;;;;;;96.53;37.27;;;-12.60;64.90;;;;;;4974955;28;20478;-76
2021/01/18 00:11:19;;;;;;;100.73;38.00;;;-12.60;64.90;;;;;;4974321;28;20038;-77
2021/01/18 00:13:46;;;;;;;94.73;37.93;;;-12.70;64.80;;;;;;4957272;28;20034;-77
2021/01/18 00:16:15;;;;;;;114.23;39.93;;;-12.70;64.80;;;;;;4975538;28;20031;-77
2021/01/18 00:18:42;;;;;;;103.77;37.77;;;-12.70;64.80;;;;;;4975887;28;20081;-77
2021/01/18 00:21:08;;;;;;;109.50;40.07;;;-12.80;64.80;;;;;;4987181;28;20027;-76
2021/01/18 00:23:36;;;;;;;109.20;40.27;;;-12.90;64.80;;;;;;4988569;28;20030;-77
2021/01/18 00:26:03;;;;;;;108.00;41.27;;;-12.90;64.80;;;;;;4988282;28;20023;-76
2021/01/18 00:28:28;;;;;;;120.23;41.83;;;-13.00;64.80;;;;;;4985544;28;20054;-77
2021/01/18 00:30:54;;;;;;;125.30;43.90;;;-13.00;64.90;;;;;;4977787;28;20061;-76
2021/01/18 00:33:20;;;;;;;110.07;42.10;;;-13.10;65.00;;;;;;4958813;28;20050;-77
2021/01/18 00:35:45;;;;;;;122.40;42.80;;;-13.10;65.10;;;;;;4976122;28;20022;-77
2021/01/18 00:38:11;;;;;;;120.23;42.00;;;-13.10;65.20;;;;;;4958277;28;20486;-77
2021/01/18 00:40:37;;;;;;;112.43;40.50;;;-13.10;65.30;;;;;;4958159;28;20051;-76
2021/01/18 00:43:02;;;;;;;107.33;40.43;;;-13.20;65.40;;;;;;4958077;28;20034;-76
2021/01/18 00:45:28;;;;;;;116.63;43.47;;;-13.20;65.50;;;;;;4974806;28;20102;-77
2021/01/18 00:47:56;;;;;;;124.90;46.47;;;-13.20;65.50;;;;;;4975053;28;20494;-78
2021/01/18 00:50:23;;;;;;;137.27;49.43;;;-13.20;65.40;;;;;;4975050;28;20055;-77
2021/01/18 00:52:51;;;;;;;127.43;47.40;;;-13.20;65.50;;;;;;4975054;28;20034;-77
2021/01/18 00:55:19;;;;;;;124.73;48.17;;;-13.20;65.50;;;;;;4975360;28;20027;-77
2021/01/18 00:57:46;;;;;;;122.63;45.43;;;-13.20;65.50;;;;;;4975132;28;20042;-77
2021/01/18 01:00:14;;;;;;;121.70;42.97;;;-13.20;65.50;;;;;;4957684;28;20031;-77
2021/01/18 01:02:41;;;;;;;113.47;41.33;;;-13.30;65.50;;;;;;4957850;28;20125;-77
2021/01/18 01:05:09;;;;;;;113.40;40.37;;;-13.30;65.50;;;;;;4973244;28;20027;-77
2021/01/18 01:07:46;;;;;;;121.70;41.47;;;-13.30;65.60;;;;;;4974834;28;20255;-77
2021/01/18 01:10:15;;;;;;;117.27;40.73;;;-13.30;65.60;;;;;;4957313;28;20094;-77
2021/01/18 01:12:41;;;;;;;98.30;37.80;;;-13.40;65.60;;;;;;4973597;28;20070;-77
2021/01/18 01:15:11;;;;;;;112.07;40.50;;;-13.40;65.70;;;;;;4973622;28;20023;-78
2021/01/18 01:17:44;;;;;;;117.63;40.57;;;-13.40;65.70;;;;;;4973413;28;20474;-77
2021/01/18 01:20:11;;;;;;;107.50;37.40;;;-13.50;65.80;;;;;;4973354;28;20126;-78
2021/01/18 01:22:41;;;;;;;111.80;39.90;;;-13.50;65.80;;;;;;4973902;28;20086;-77
2021/01/18 01:25:08;;;;;;;96.90;38.23;;;-13.50;65.90;;;;;;4973426;28;20037;-78
2021/01/18 01:27:34;;;;;;;119.57;40.57;;;-13.50;65.90;;;;;;4974007;28;20094;-77
2021/01/18 01:30:00;;;;;;;107.63;40.60;;;-13.50;66.00;;;;;;4974008;28;20130;-76
2021/01/18 01:32:26;;;;;;;105.80;38.93;;;-13.50;66.00;;;;;;4956686;28;20066;-76
2021/01/18 01:34:52;;;;;;;113.70;43.33;;;-13.50;66.00;;;;;;4956979;28;20433;-77
2021/01/18 01:37:18;;;;;;;107.67;37.23;;;-13.60;65.90;;;;;;4973897;28;20090;-78
2021/01/18 01:39:43;;;;;;;111.27;39.40;;;-13.60;66.00;;;;;;4972835;28;20031;-77
2021/01/18 01:42:23;;;;;;;107.10;37.27;;;-13.60;66.00;;;;;;4956890;28;20026;-77
2021/01/18 01:44:49;;;;;;;112.17;38.87;;;-13.60;66.10;;;;;;4974214;28;20027;-77
2021/01/18 01:47:29;;;;;;;95.07;36.47;;;-13.60;66.20;;;;;;4956624;28;20023;-77
2021/01/18 01:49:56;;;;;;;88.37;34.37;;;-13.70;66.10;;;;;;4974243;28;20030;-77
2021/01/18 01:52:24;;;;;;;95.40;35.93;;;-13.70;66.20;;;;;;4974124;28;20474;-77
2021/01/18 01:54:54;;;;;;;96.07;35.17;;;-13.70;66.20;;;;;;4973893;28;20474;-77
2021/01/18 01:57:20;;;;;;;99.33;34.20;;;-13.70;66.20;;;;;;4974485;28;20397;-77
2021/01/18 01:59:46;;;;;;;108.53;40.60;;;-13.80;66.20;;;;;;4977808;28;20034;-77
2021/01/18 02:02:14;;;;;;;103.57;36.73;;;-13.80;66.20;;;;;;4977867;28;20030;-77
2021/01/18 02:04:40;;;;;;;89.07;32.60;;;-13.80;66.40;;;;;;4977650;28;20034;-77
2021/01/18 02:07:27;;;;;;;96.30;35.83;;;-13.80;66.40;;;;;;4977888;28;20031;-77
2021/01/18 02:09:55;;;;;;;89.43;34.80;;;-13.80;66.40;;;;;;4977810;28;20114;-78
2021/01/18 02:12:22;;;;;;;95.23;34.77;;;-13.80;66.50;;;;;;4976927;28;20086;-78
2021/01/18 02:15:27;;;;;;;99.13;35.70;;;-13.80;66.50;;;;;;4977769;28;20031;-78
2021/01/18 02:18:02;;;;;;;96.77;35.60;;;-13.90;66.40;;;;;;4977596;28;20078;-77
2021/01/18 02:20:34;;;;;;;89.90;34.33;;;-13.90;66.50;;;;;;4977545;28;20544;-77
2021/01/18 02:23:21;;;;;;;83.72;31.33;;;-13.90;66.60;;;;;;4977323;28;20504;-77
2021/01/18 02:26:06;;;;;;;81.67;32.63;;;-13.90;66.70;;;;;;4977340;28;20436;-77
2021/01/18 02:29:07;;;;;;;94.03;32.17;;;-13.90;66.80;;;;;;4977263;28;20374;-77
2021/01/18 02:32:01;;;;;;;87.07;31.80;;;-13.90;66.90;;;;;;4977158;28;20507;-77
2021/01/18 02:35:24;;;;;;;99.77;33.20;;;-13.80;67.10;;;;;;4959901;28;20034;-78
2021/01/18 02:38:33;;;;;;;124.88;40.85;;;-13.80;67.20;;;;;;4917919;29;20885;-76
2021/01/18 02:41:10;;;;;;;132.37;38.03;;;-13.80;67.20;;;;;;4891710;29;20581;-77
2021/01/18 02:43:52;;;;;;;127.20;40.17;;;-13.70;67.30;;;;;;4975228;28;20105;-77
2021/01/18 02:46:20;;;;;;;;;;;-13.70;67.30;;;;;;4977661;28;20030;-76
2021/01/18 02:48:47;;;;;;;108.50;36.27;;;-13.70;67.30;;;;;;4977088;28;19961;-77
2021/01/18 02:51:17;;;;;;;109.63;36.23;;;-13.60;67.30;;;;;;4976831;28;20027;-78
2021/01/18 02:53:54;;;;;;;125.67;39.57;;;-13.60;67.40;;;;;;4977146;28;20027;-77
2021/01/18 02:56:24;;;;;;;111.50;35.37;;;-13.60;67.50;;;;;;4976656;28;20034;-77
2021/01/18 02:58:52;;;;;;;106.30;33.23;;;-13.50;67.60;;;;;;4977347;28;20551;-77
2021/01/18 03:01:48;;;;;;;91.13;32.07;;;-13.50;67.50;;;;;;4959468;28;20030;-78
2021/01/18 03:04:51;;;;;;;88.80;33.70;;;-13.50;67.50;;;;;;4976829;28;20033;-78
2021/01/18 03:07:50;;;;;;;91.43;34.63;;;-13.50;67.50;;;;;;4976797;28;20015;-77
2021/01/18 03:10:21;;;;;;;87.33;32.43;;;-13.40;67.50;;;;;;4975379;28;20031;-77
2021/01/18 03:12:59;;;;;;;93.72;36.97;;;-13.40;67.40;;;;;;4976352;28;20512;-78
2021/01/18 03:15:30;;;;;;;118.57;42.97;;;-13.40;67.40;;;;;;4976799;28;20109;-77
2021/01/18 03:18:01;;;;;;;123.47;42.43;;;-13.40;67.50;;;;;;4959457;28;20039;-77
2021/01/18 03:20:27;;;;;;;159.00;48.67;;;-13.40;67.50;;;;;;4976326;28;20085;-78
2021/01/18 03:23:00;;;;;;;137.30;44.33;;;-13.40;67.50;;;;;;4976450;28;20026;-77
2021/01/18 03:25:26;;;;;;;128.90;42.20;;;-13.40;67.50;;;;;;4976501;28;20084;-78
2021/01/18 03:27:58;;;;;;;115.57;41.43;;;-13.30;68.10;;;;;;4976655;28;20140;-77
2021/01/18 03:30:25;;;;;;;105.10;37.37;;;-13.30;67.60;;;;;;4959176;28;20027;-77
2021/01/18 03:32:55;;;;;;;93.20;32.80;;;-13.30;67.50;;;;;;4976296;28;20062;-78
2021/01/18 03:35:21;;;;;;;95.90;34.07;;;-13.30;67.50;;;;;;4976311;28;20528;-77
2021/01/18 03:37:56;;;;;;;96.90;33.37;;;-13.30;67.50;;;;;;4958695;28;20026;-77
2021/01/18 03:40:24;;;;;;;95.07;34.10;;;-13.30;67.60;;;;;;4976391;28;20166;-78
2021/01/18 03:42:56;;;;;;;93.07;34.63;;;-13.30;67.70;;;;;;4976206;28;20034;-77
2021/01/18 03:45:23;;;;;;;87.33;32.33;;;-13.30;67.70;;;;;;4976320;28;20026;-78
2021/01/18 03:47:49;;;;;;;90.07;32.23;;;-13.30;67.70;;;;;;4958831;28;20030;-77
2021/01/18 03:50:15;;;;;;;81.10;31.73;;;-13.20;67.80;;;;;;4976375;28;20039;-77
2021/01/18 03:52:44;;;;;;;81.50;30.17;;;-13.20;67.70;;;;;;4976102;28;20035;-77
2021/01/18 03:55:10;;;;;;;79.87;30.43;;;-13.20;67.70;;;;;;4976325;28;20038;-78
2021/01/18 03:57:36;;;;;;;76.83;32.03;;;-13.20;67.60;;;;;;4975974;28;20150;-78
2021/01/18 04:00:05;;;;;;;80.07;31.67;;;-13.20;67.50;;;;;;4975800;28;20378;-77
2021/01/18 04:02:30;;;;;;;81.57;30.63;;;-13.20;67.40;;;;;;4976188;28;20030;-78
2021/01/18 04:04:56;;;;;;;84.23;31.43;;;-13.30;67.30;;;;;;4975740;28;20027;-78
2021/01/18 04:07:21;;;;;;;83.67;32.93;;;-13.30;67.30;;;;;;4957410;28;20434;-78
2021/01/18 04:09:47;;;;;;;79.47;32.67;;;-13.30;67.20;;;;;;4974658;28;20030;-78
2021/01/18 04:12:13;;;;;;;91.90;33.67;;;-13.40;67.10;;;;;;4958142;28;20034;-78
2021/01/18 04:14:38;;;;;;;86.77;34.90;;;-13.40;67.20;;;;;;4976040;28;20033;-78
2021/01/18 04:17:04;;;;;;;79.77;30.17;;;-13.40;67.30;;;;;;4975822;28;20134;-77
2021/01/18 04:19:31;;;;;;;88.17;34.77;;;-13.40;67.40;;;;;;4957558;28;20035;-77
2021/01/18 04:21:57;;;;;;;92.10;33.63;;;-13.50;67.30;;;;;;4957555;28;20114;-77
2021/01/18 04:24:23;;;;;;;121.97;46.10;;;-13.50;67.40;;;;;;4975232;28;20097;-77
2021/01/18 04:26:48;;;;;;;112.30;43.30;;;-13.50;67.50;;;;;;4975146;28;20561;-78
2021/01/18 04:29:14;;;;;;;149.97;54.73;;;-13.50;67.50;;;;;;4975156;28;20045;-76
2021/01/18 04:31:41;;;;;;;115.07;44.33;;;-13.50;67.50;;;;;;4957410;28;20054;-76
2021/01/18 04:34:07;;;;;;;89.63;36.23;;;-13.50;67.50;;;;;;4974562;28;20026;-77
2021/01/18 04:36:40;;;;;;;96.10;36.53;;;-13.50;67.50;;;;;;4974669;28;20023;-77
2021/01/18 04:39:07;;;;;;;92.93;34.90;;;-13.50;67.50;;;;;;4975206;28;20090;-77
2021/01/18 04:41:36;;;;;;;90.80;32.40;;;-13.50;67.50;;;;;;4974863;28;20035;-77
2021/01/18 04:44:06;;;;;;;88.20;33.53;;;-13.60;67.40;;;;;;4974634;28;20050;-77
2021/01/18 04:46:42;;;;;;;95.60;33.57;;;-13.60;67.30;;;;;;4974642;28;20503;-76
2021/01/18 04:49:13;;;;;;;105.93;37.60;;;-13.60;67.30;;;;;;4957320;28;20465;-78
2021/01/18 04:51:48;;;;;;;93.80;35.13;;;-13.60;67.30;;;;;;4974673;28;20046;-79
2021/01/18 04:54:19;;;;;;;93.57;35.93;;;-13.70;67.30;;;;;;4974647;28;20035;-78
2021/01/18 04:57:23;;;;;;;89.90;34.37;;;-13.70;67.30;;;;;;4957433;28;20392;-78
2021/01/18 04:59:49;;;;;;;92.90;35.60;;;-13.80;67.30;;;;;;4957333;28;20081;-77
2021/01/18 05:02:19;;;;;;;89.03;35.20;;;-13.80;67.40;;;;;;4975019;28;20026;-79
2021/01/18 05:04:50;;;;;;;87.57;34.70;;;-13.80;67.40;;;;;;4975082;28;20143;-77
2021/01/18 05:07:34;;;;;;;101.53;37.67;;;-13.80;67.40;;;;;;4974977;28;20715;-78
2021/01/18 05:10:11;;;;;;;119.90;41.00;;;-13.80;67.40;;;;;;4974769;28;20026;-79
2021/01/18 05:12:42;;;;;;;120.77;43.23;;;-13.80;67.60;;;;;;4974394;28;20030;-79
2021/01/18 05:15:10;;;;;;;92.53;35.55;;;-13.80;67.70;;;;;;4974490;28;20034;-80
2021/01/18 05:17:43;;;;;;;86.30;33.27;;;-13.80;67.80;;;;;;4977751;28;20030;-79
2021/01/18 05:20:11;;;;;;;83.67;32.83;;;-13.80;67.90;;;;;;4974512;28;20035;-77
2021/01/18 05:22:39;;;;;;;81.13;32.43;;;-13.70;68.10;;;;;;4974220;28;20019;-77
2021/01/18 05:25:08;;;;;;;76.03;31.93;;;-13.70;68.20;;;;;;4974375;28;20022;-78
2021/01/18 05:27:34;;;;;;;72.67;29.90;;;-13.70;68.10;;;;;;4974305;28;20666;-78
2021/01/18 05:30:00;;;;;;;79.83;30.07;;;-13.60;68.20;;;;;;4974226;28;20074;-78
2021/01/18 05:32:26;;;;;;;63.80;25.93;;;-13.60;68.20;;;;;;4972881;28;20051;-78
2021/01/18 05:35:15;;;;;;;73.47;28.30;;;-13.60;68.20;;;;;;4974181;28;20085;-79
2021/01/18 05:38:11;;;;;;;82.07;32.27;;;-13.60;68.20;;;;;;4951457;28;20065;-78
2021/01/18 05:40:49;;;;;;;85.07;32.63;;;-13.50;68.30;;;;;;4973888;28;20035;-78
2021/01/18 05:43:16;;;;;;;82.67;32.57;;;-13.50;68.30;;;;;;4974263;28;20362;-79
2021/01/18 05:45:44;;;;;;;71.47;29.07;;;-13.40;68.40;;;;;;4973971;28;20098;-79
2021/01/18 05:48:11;;;;;;;74.63;31.57;;;-13.40;68.50;;;;;;4956067;28;20046;-78
2021/01/18 05:50:38;;;;;;;69.77;29.30;;;-13.40;68.40;;;;;;4956373;28;20027;-78
2021/01/18 05:53:28;;;;;;;75.00;29.77;;;-13.40;68.40;;;;;;4973874;28;20426;-78
2021/01/18 05:55:54;;;;;;;73.40;30.10;;;-13.40;68.40;;;;;;4973152;28;20025;-78
2021/01/18 05:58:37;;;;;;;79.63;31.87;;;-13.30;68.50;;;;;;4973777;28;20102;-78
2021/01/18 06:01:03;;;;;;;75.70;33.90;;;-13.30;68.60;;;;;;4956369;28;20023;-78
2021/01/18 06:03:30;;;;;;;80.60;30.63;;;-13.20;68.60;;;;;;4973480;28;20363;-78
2021/01/18 06:05:57;;;;;;;73.50;30.77;;;-13.20;68.70;;;;;;4956497;28;20030;-78
2021/01/18 06:08:24;;;;;;;79.10;30.67;;;-13.20;68.70;;;;;;4974180;28;20382;-78
2021/01/18 06:10:52;;;;;;;82.87;30.53;;;-13.10;68.70;;;;;;4955840;28;20027;-79
2021/01/18 06:13:24;;;;;;;74.63;29.57;;;-13.10;68.60;;;;;;4973343;28;20027;-78
2021/01/18 06:15:59;;;;;;;83.88;34.08;;;-13.10;68.60;;;;;;4972971;28;20450;-78
2021/01/18 06:18:27;;;;;;;87.23;34.13;;;-13.00;68.70;;;;;;4955429;28;20034;-78
2021/01/18 06:20:57;;;;;;;94.23;33.20;;;-13.00;68.70;;;;;;4972851;28;20037;-78
2021/01/18 06:23:23;;;;;;;76.67;28.83;;;-12.90;68.80;;;;;;4973274;28;20086;-77
2021/01/18 06:25:53;;;;;;;69.77;29.20;;;-12.90;68.90;;;;;;4955562;28;20550;-78
2021/01/18 06:28:35;;;;;;;69.30;28.03;;;-12.80;69.00;;;;;;4955666;28;20031;-77
2021/01/18 06:31:01;;;;;;;77.73;31.00;;;-12.70;69.00;;;;;;4971371;28;20121;-78
2021/01/18 06:33:48;;;;;;;87.40;32.70;;;-12.70;68.90;;;;;;4972917;28;20170;-78
2021/01/18 06:36:15;;;;;;;93.87;35.93;;;-12.60;69.00;;;;;;4955311;28;20035;-76
2021/01/18 06:38:46;;;;;;;97.10;35.27;;;-12.50;69.10;;;;;;4955441;28;20042;-79
2021/01/18 06:41:13;;;;;;;101.87;41.10;;;-12.40;69.30;;;;;;4972654;28;20480;-78
2021/01/18 06:43:46;;;;;;;93.50;36.67;;;-12.30;69.50;;;;;;4973782;28;20474;-78
2021/01/18 06:46:16;;;;;;;85.47;34.10;;;-12.10;69.80;;;;;;4958625;28;20466;-78
2021/01/18 06:48:44;;;;;;;75.80;31.83;;;-11.90;70.10;;;;;;4976141;28;20035;-78
2021/01/18 06:51:18;;;;;;;85.80;33.53;;;-11.70;70.30;;;;;;4975349;28;20125;-79
2021/01/18 06:53:47;;;;;;;76.57;28.40;;;-11.40;70.40;;;;;;4974067;28;20037;-79
2021/01/18 06:56:29;;;;;;;76.77;30.17;;;-11.10;70.90;;;;;;4974146;28;20129;-78
2021/01/18 06:59:05;;;;;;;80.03;29.20;;;-10.70;71.60;;;;;;4958827;28;20030;-79
2021/01/18 07:01:41;;;;;;;74.63;30.30;;;-10.20;71.70;;;;;;4975628;28;20022;-79
2021/01/18 07:04:13;;;;;;;70.13;31.03;;;-9.90;71.10;;;;;;4974156;28;20434;-78
2021/01/18 07:06:45;;;;;;;72.00;30.13;;;-9.60;71.30;;;;;;4976065;28;20474;-78
2021/01/18 07:09:16;;;;;;;79.30;31.58;;;-9.30;71.60;;;;;;4975819;28;20054;-77
2021/01/18 07:11:43;;;;;;;86.68;33.45;;;-8.90;71.30;;;;;;4976259;28;20026;-81
2021/01/18 07:14:11;;;;;;;82.13;31.50;;;-8.60;70.70;;;;;;4976541;28;20039;-83
2021/01/18 07:16:39;;;;;;;88.17;35.27;;;-8.40;70.30;;;;;;4977181;28;20077;-82
2021/01/18 07:19:06;;;;;;;87.80;33.30;;;-8.30;69.60;;;;;;4976892;28;20049;-81
2021/01/18 07:21:47;;;;;;;114.73;40.07;;;-8.10;69.60;;;;;;4959476;28;20031;-82
2021/01/18 07:24:15;;;;;;;102.03;39.78;;;-7.80;69.80;;;;;;4976076;28;20023;-82
2021/01/18 07:26:56;;;;;;;111.40;40.33;;;-7.50;69.50;;;;;;4976525;28;20380;-82
2021/01/18 07:29:24;;;;;;;94.65;36.55;;;-7.30;69.10;;;;;;4976875;28;20027;-82
2021/01/18 07:31:56;;;;;;;106.25;37.42;;;-7.10;68.60;;;;;;4976765;28;20046;-82
2021/01/18 07:34:24;;;;;;;82.47;35.53;;;-6.90;68.10;;;;;;4976691;28;20023;-82
2021/01/18 07:36:51;;;;;;;83.93;35.53;;;-6.70;68.60;;;;;;4976571;28;20022;-82
2021/01/18 07:39:24;;;;;;;81.90;36.22;;;-6.40;68.30;;;;;;4976544;28;20031;-81
2021/01/18 07:41:50;;;;;;;72.40;31.10;;;-6.20;67.70;;;;;;4976378;28;20046;-81
2021/01/18 07:44:32;;;;;;;65.13;29.25;;;-6.00;67.30;;;;;;4976671;28;20486;-82
2021/01/18 07:47:03;;;;;;;66.75;27.67;;;-5.80;67.30;;;;;;4976659;28;20050;-82
2021/01/18 07:49:35;;;;;;;58.90;29.17;;;-5.50;67.10;;;;;;4976705;28;20039;-79
2021/01/18 07:52:28;;;;;;;63.13;27.65;;;-5.10;67.00;;;;;;4977088;28;20090;-82
2021/01/18 07:54:55;;;;;;;59.92;27.95;;;-4.70;66.60;;;;;;4971139;28;20035;-82
2021/01/18 07:57:31;;;;;;;61.53;28.17;;;-4.40;66.00;;;;;;4987048;28;20035;-83
2021/01/18 08:00:19;;;;;;;70.95;29.90;;;-4.10;65.40;;;;;;4978646;28;20037;-81
2021/01/18 08:02:46;;;;;;;64.43;28.58;;;-3.80;64.90;;;;;;4958616;28;20023;-83
2021/01/18 08:05:35;;;;;;;73.63;33.60;;;-3.60;64.50;;;;;;4975669;28;20073;-81
2021/01/18 08:08:05;;;;;;;77.53;33.42;;;-3.40;63.70;;;;;;4975972;28;20034;-82
2021/01/18 08:10:58;;;;;;;83.78;36.90;;;-3.20;63.30;;;;;;4975933;28;20430;-82
2021/01/18 08:13:40;;;;;;;85.47;40.30;;;-3.00;62.60;;;;;;4975522;28;20023;-82
2021/01/18 08:16:22;;;;;;;68.25;32.05;;;-2.70;62.20;;;;;;4975659;28;20030;-81
2021/01/18 08:18:58;;;;;;;74.80;32.05;;;-2.60;61.60;;;;;;4976082;28;20103;-82
2021/01/18 08:21:33;;;;;;;66.18;31.02;;;-2.40;61.20;;;;;;4976536;28;20109;-83
2021/01/18 08:24:28;;;;;;;65.35;29.00;;;-2.20;60.90;;;;;;4958211;28;20019;-82
2021/01/18 08:27:12;;;;;;;66.95;30.30;;;-2.10;60.00;;;;;;4963063;28;20508;-83
2021/01/18 08:29:52;;;;;;;63.65;30.00;;;-1.90;59.80;;;;;;4958128;28;20061;-82
2021/01/18 08:32:23;;;;;;;57.17;27.77;;;-1.80;59.30;;;;;;4966106;28;20043;-81
2021/01/18 08:34:54;;;;;;;64.53;30.63;;;-1.70;58.60;;;;;;4956087;29;20023;-83
2021/01/18 08:37:24;;;;;;;58.53;26.15;;;-1.60;58.50;;;;;;4956601;29;20470;-83
2021/01/18 08:40:04;;;;;;;52.63;25.55;;;-1.40;58.40;;;;;;4956264;29;20114;-82
2021/01/18 08:42:35;;;;;;;56.92;25.45;;;-1.20;57.90;;;;;;4955256;29;20027;-82
2021/01/18 08:45:07;;;;;;;52.10;26.55;;;-1.00;57.20;;;;;;4955299;29;20046;-82
2021/01/18 08:47:45;;;;;;;;;;;-0.90;56.50;;;;;;4954678;29;20083;-82
2021/01/18 08:50:21;;;;;;;53.58;24.40;;;-0.70;56.40;;;;;;4956582;29;19910;-82
2021/01/18 08:52:53;;;;;;;49.00;25.83;;;-0.50;56.00;;;;;;4956065;29;20035;-82
2021/01/18 08:55:31;;;;;;;49.95;26.17;;;-0.40;55.50;;;;;;4955671;29;20027;-82
2021/01/18 08:58:01;;;;;;;49.45;24.65;;;-0.30;54.80;;;;;;4956408;29;20034;-83
2021/01/18 09:00:39;;;;;;;45.80;24.20;;;-0.20;54.30;;;;;;4955734;29;20496;-82
2021/01/18 09:03:05;;;;;;;51.83;24.17;;;-0.20;53.50;;;;;;4954467;29;20155;-83
2021/01/18 09:05:31;;;;;;;52.67;26.17;;;-0.20;53.40;;;;;;4955806;29;20442;-82
2021/01/18 09:07:57;;;;;;;51.63;25.58;;;-0.30;52.20;;;;;;4955427;28;20031;-83
2021/01/18 09:10:24;;;;;;;48.90;23.85;;;-0.40;52.50;;;;;;4958225;29;20027;-83
2021/01/18 09:12:50;;;;;;;51.63;26.38;;;-0.20;52.60;;;;;;4954170;29;20549;-83
2021/01/18 09:15:19;;;;;;;53.33;26.25;;;-0.10;52.20;;;;;;4953933;29;20492;-83
2021/01/18 09:17:46;;;;;;;50.00;25.98;;;0.00;51.70;;;;;;4954418;28;20055;-83
2021/01/18 09:20:13;;;;;;;56.08;26.67;;;0.20;51.70;;;;;;4956851;28;20401;-81
2021/01/18 09:22:40;;;;;;;53.28;27.17;;;0.30;51.30;;;;;;4938890;29;20118;-83
2021/01/18 09:25:07;;;;;;;49.17;25.10;;;0.50;51.10;;;;;;4954851;29;20530;-80
2021/01/18 09:27:34;;;;;;;51.72;25.45;;;0.70;50.80;;;;;;4955103;29;20024;-82
2021/01/18 09:30:04;;;;;;;45.53;25.08;;;0.90;50.40;;;;;;4953656;28;20055;-81
2021/01/18 09:32:30;;;;;;;53.20;26.80;;;0.90;49.70;;;;;;4972881;28;20108;-81
2021/01/18 09:35:08;;;;;;;53.83;27.08;;;1.10;49.70;;;;;;4976112;28;20400;-83
2021/01/18 09:37:38;;;;;;;48.08;23.83;;;1.20;49.00;;;;;;4993540;28;20034;-82
2021/01/18 09:40:07;;;;;;;43.28;23.58;;;1.20;48.50;;;;;;4976505;28;20034;-82
2021/01/18 09:42:35;;;;;;;48.22;24.40;;;1.20;48.30;;;;;;4994303;28;20557;-85
2021/01/18 09:45:01;;;;;;;43.95;22.67;;;1.20;47.80;;;;;;4994169;28;20124;-83
2021/01/18 09:47:30;;;;;;;50.92;27.08;;;0.90;46.90;;;;;;4994899;28;20030;-82
2021/01/18 09:50:09;;;;;;;51.75;27.20;;;0.80;47.30;;;;;;4994758;28;20038;-83
2021/01/18 09:52:41;;;;;;;54.72;27.17;;;0.70;47.40;;;;;;4995109;28;20397;-81
2021/01/18 09:55:17;;;;;;;46.53;24.60;;;0.60;47.20;;;;;;4981450;28;20038;-81
2021/01/18 09:58:00;;;;;;;56.17;27.70;;;0.50;47.30;;;;;;4987108;28;20073;-82
2021/01/18 10:00:31;;;;;;;54.35;27.42;;;0.40;47.20;;;;;;4993488;28;20381;-81
2021/01/18 10:03:00;;;;;;;59.88;29.80;;;0.40;47.30;;;;;;4993009;28;20489;-81
2021/01/18 10:05:40;;;;;;;48.00;24.55;;;0.30;47.30;;;;;;4992103;28;20026;-82
2021/01/18 10:08:28;;;;;;;55.08;23.88;;;0.30;47.10;;;;;;4993369;28;20173;-81
2021/01/18 10:10:54;;;;;;;46.13;22.80;;;0.20;47.00;;;;;;4993231;28;20050;-81
2021/01/18 10:13:25;;;;;;;43.40;20.88;;;0.20;47.10;;;;;;4975881;28;20481;-80
2021/01/18 10:15:52;;;;;;;47.80;23.00;;;0.10;47.00;;;;;;4993176;28;20505;-80
2021/01/18 10:18:32;;;;;;;48.80;23.30;;;0.20;46.90;;;;;;4994353;28;20076;-81
2021/01/18 10:21:00;;;;;;;53.80;23.55;;;0.20;46.40;;;;;;4978376;28;20029;-82
2021/01/18 10:23:33;;;;;;;40.17;21.73;;;0.10;46.30;;;;;;4977577;28;20061;-80
2021/01/18 10:26:25;;;;;;;50.45;24.50;;;0.10;46.10;;;;;;4976215;28;20485;-81
2021/01/18 10:28:53;;;;;;;46.40;23.50;;;0.00;45.70;;;;;;4977528;28;20054;-80
2021/01/18 10:31:21;;;;;;;53.67;26.55;;;-0.10;45.50;;;;;;4977917;28;20030;-81
2021/01/18 10:34:17;;;;;;;57.28;27.63;;;-0.50;45.10;;;;;;4977236;28;20085;-80
2021/01/18 10:36:45;;;;;;;53.88;25.92;;;-0.70;45.70;;;;;;4977198;28;20030;-82
2021/01/18 10:39:33;;;;;;;44.97;22.13;;;-0.50;46.40;;;;;;4977465;28;20430;-82
2021/01/18 10:42:04;;;;;;;53.72;23.83;;;-0.40;46.10;;;;;;4975838;28;20444;-81
2021/01/18 10:44:30;;;;;;;46.25;22.88;;;-0.40;46.50;;;;;;4977490;28;20031;-81
2021/01/18 10:46:56;;;;;;;51.85;27.92;;;-0.40;46.00;;;;;;4976920;28;20113;-81
2021/01/18 10:49:30;;;;;;;49.58;24.58;;;-0.40;45.60;;;;;;4977424;28;20441;-80
2021/01/18 10:52:04;;;;;;;46.00;22.95;;;-0.30;46.00;;;;;;4975428;28;20042;-81
2021/01/18 10:54:30;;;;;;;51.47;24.77;;;0.00;46.00;;;;;;4976689;28;20026;-80
2021/01/18 10:56:57;;;;;;;55.60;24.80;;;0.30;46.10;;;;;;4976450;28;20031;-81
2021/01/18 10:59:23;;;;;;;51.35;25.55;;;0.60;46.00;;;;;;4977616;28;20492;-82
2021/01/18 11:02:11;;;;;;;59.17;27.70;;;0.80;45.30;;;;;;4977286;28;20033;-83
2021/01/18 11:04:45;;;;;;;59.20;28.88;;;0.80;44.90;;;;;;4976801;28;20084;-81
2021/01/18 11:07:11;;;;;;;50.65;26.98;;;0.80;44.80;;;;;;4977215;28;20101;-80
2021/01/18 11:09:38;;;;;;;46.75;24.55;;;0.80;44.60;;;;;;4976863;28;20043;-80
2021/01/18 11:12:04;;;;;;;52.65;24.83;;;0.60;44.40;;;;;;4975349;28;20042;-81
2021/01/18 11:14:31;;;;;;;53.38;24.30;;;0.40;44.40;;;;;;4975736;28;20093;-80
2021/01/18 11:17:02;;;;;;;51.35;25.35;;;0.10;44.30;;;;;;4977132;28;20035;-80
2021/01/18 11:19:29;;;;;;;51.00;25.40;;;-0.20;44.40;;;;;;4978110;28;20477;-81
2021/01/18 11:21:55;;;;;;;54.47;25.30;;;-0.50;44.20;;;;;;4976795;28;20023;-79
2021/01/18 11:24:21;;;;;;;89.05;27.25;;;-0.70;44.20;;;;;;4976697;28;20105;-81
2021/01/18 11:26:51;;;;;;;58.95;24.45;;;-0.90;44.80;;;;;;4976427;28;20027;-80
2021/01/18 11:29:17;;;;;;;54.17;25.08;;;-1.00;45.00;;;;;;4974543;28;20031;-81
2021/01/18 11:31:47;;;;;;;54.60;26.70;;;-0.90;45.30;;;;;;4969497;28;20058;-81
2021/01/18 11:34:16;;;;;;;52.83;25.52;;;-0.80;45.30;;;;;;4955771;29;20035;-79
2021/01/18 11:36:42;;;;;;;59.78;25.30;;;-0.80;45.00;;;;;;4955628;29;20075;-79
2021/01/18 11:39:09;;;;;;;52.20;24.05;;;-0.70;45.10;;;;;;4955715;28;20075;-80
2021/01/18 11:41:35;;;;;;;59.90;29.30;;;-0.80;44.90;;;;;;4956044;29;20028;-79
2021/01/18 11:44:02;;;;;;;46.53;24.23;;;-0.90;44.70;;;;;;4956786;29;20028;-81
2021/01/18 11:46:28;;;;;;;48.05;24.33;;;-1.10;44.50;;;;;;4956437;29;20023;-79
2021/01/18 11:48:54;;;;;;;49.97;25.08;;;-1.20;44.90;;;;;;4939241;29;20530;-79
2021/01/18 11:51:19;;;;;;;50.42;24.33;;;-1.20;45.30;;;;;;4956000;29;20031;-81
2021/01/18 11:53:48;;;;;;;46.83;24.30;;;-1.20;45.50;;;;;;4955636;29;20411;-81
2021/01/18 11:56:15;;;;;;;51.50;25.45;;;-1.30;45.50;;;;;;4955854;29;20027;-81
2021/01/18 11:58:41;;;;;;;54.90;26.33;;;-1.30;45.40;;;;;;4956553;28;20031;-81
2021/01/18 12:01:07;;;;;;;50.03;24.70;;;-1.30;45.20;;;;;;4956222;29;20027;-79
2021/01/18 12:03:33;;;;;;;54.45;26.98;;;-1.30;45.20;;;;;;4956731;29;20039;-81
2021/01/18 12:05:59;;;;;;;55.80;26.25;;;-1.30;45.20;;;;;;4956126;29;20042;-80
2021/01/18 12:08:25;;;;;;;55.65;24.58;;;-1.30;45.20;;;;;;4956224;29;20448;-80
2021/01/18 12:10:50;;;;;;;53.63;25.65;;;-1.30;45.10;;;;;;4954353;29;20063;-79
2021/01/18 12:13:16;;;;;;;49.17;23.75;;;-1.40;45.00;;;;;;4953960;29;20031;-81
2021/01/18 12:15:43;;;;;;;45.92;23.50;;;-1.50;45.10;;;;;;4956079;29;20023;-81
2021/01/18 12:18:09;;;;;;;49.42;22.75;;;-1.60;45.10;;;;;;4954576;29;20027;-81
2021/01/18 12:20:34;;;;;;;52.10;23.88;;;-1.90;45.00;;;;;;4955563;29;20114;-81
2021/01/18 12:23:00;;;;;;;58.45;27.67;;;-2.10;45.10;;;;;;4954159;28;20031;-80
2021/01/18 12:25:26;;;;;;;47.30;22.35;;;-2.40;45.00;;;;;;4956400;29;20394;-85
2021/01/18 12:27:57;;;;;;;57.40;25.48;;;-2.60;45.20;;;;;;4956371;29;20019;-83
2021/01/18 12:30:24;;;;;;;47.63;23.83;;;-2.80;45.40;;;;;;4956728;29;20038;-84
2021/01/18 12:32:50;;;;;;;46.08;22.75;;;-3.10;45.40;;;;;;4949911;29;20047;-84
2021/01/18 12:35:16;;;;;;;44.33;21.92;;;-3.40;45.50;;;;;;4956912;29;20035;-83
2021/01/18 12:37:43;;;;;;;51.25;20.60;;;-3.60;45.60;;;;;;4956230;29;20027;-83
2021/01/18 12:40:10;;;;;;;45.42;20.98;;;-3.80;45.70;;;;;;4970739;28;20062;-84
2021/01/18 12:42:48;;;;;;;40.80;19.67;;;-4.10;45.90;;;;;;4954562;28;20478;-84